Portada
METAR-TAF:

METAR-TAF

Aeroports :

Tuggurt, Algèria

latitud: 33-07N, longitud: 006-08E, altitud: 85 m

Observació

L'informe es va fer fa 21 minuts, a les 09:00 UTC
Vent calma
Temperatura 14°C
Humitat 63%
Pressió 1027 hPa
Visibilitat 10 km o més
sense núvols per sota de 1500 mi sense presència de cumulonimbus.

METAR: DAUK 210900Z 00000KT CAVOK 14/07 Q1027

Hora: 10:21 (09:21 UTC)

Pronòstic

L'informe es va fer fa 1 hora i 21 minuts, a les 08:00 UTC
Pronòstic vàlid del 21 a les 09 UTC al 21 a les 18 UTC
Vent 5 kt del Nord/Nord-Est
Visibilitat 10 km o més
sense núvols per sota de 1500 mi sense presència de cumulonimbus.

TAF: DAUK 210800Z 2109/2118 02005KT CAVOK

Observacions i pronòstics meteorològics de més de 4000 aeroports (METAR i TAF).

Les estacions disponibles són els punts grocs i vermells al mapa.

Posi el ratolí al punt desitjat per veure el nom de l'estació.

Feu clic per veure les observacions i els pronòstics meteorològics.

Per canviar el mapa: feu clic els botons verds amb una creu de color negre per apropar; al botó verd amb un guió per allunyar la imatge; o en les fletxes verdes per a mapes adjacents.


METAR-TAF: